sensor_id;sensor_type;location;lat;lon;timestamp;P1;durP1;ratioP1;P2;durP2;ratioP2
21843;SDS011;11084;52.482;9.108;2022-07-29T00:01:29;1.77;;;1.13;;
21843;SDS011;11084;52.482;9.108;2022-07-29T00:03:55;4.27;;;1.30;;
21843;SDS011;11084;52.482;9.108;2022-07-29T00:06:21;4.47;;;1.33;;
21843;SDS011;11084;52.482;9.108;2022-07-29T00:08:47;3.07;;;1.20;;
21843;SDS011;11084;52.482;9.108;2022-07-29T00:11:13;1.20;;;0.90;;
21843;SDS011;11084;52.482;9.108;2022-07-29T00:13:39;2.73;;;1.17;;
21843;SDS011;11084;52.482;9.108;2022-07-29T00:16:05;3.57;;;1.00;;
21843;SDS011;11084;52.482;9.108;2022-07-29T00:18:31;8.17;;;1.27;;
21843;SDS011;11084;52.482;9.108;2022-07-29T00:20:58;1.23;;;0.93;;
21843;SDS011;11084;52.482;9.108;2022-07-29T00:23:24;1.17;;;1.07;;
21843;SDS011;11084;52.482;9.108;2022-07-29T00:25:50;5.23;;;1.00;;
21843;SDS011;11084;52.482;9.108;2022-07-29T00:28:16;4.03;;;0.67;;
21843;SDS011;11084;52.482;9.108;2022-07-29T00:30:42;1.67;;;0.80;;
21843;SDS011;11084;52.482;9.108;2022-07-29T00:33:08;1.40;;;1.20;;
21843;SDS011;11084;52.482;9.108;2022-07-29T00:35:35;1.40;;;0.80;;
21843;SDS011;11084;52.482;9.108;2022-07-29T00:38:14;5.50;;;1.40;;
21843;SDS011;11084;52.482;9.108;2022-07-29T00:40:42;1.60;;;1.00;;
21843;SDS011;11084;52.482;9.108;2022-07-29T00:43:09;1.10;;;0.90;;
21843;SDS011;11084;52.482;9.108;2022-07-29T00:45:37;1.73;;;1.20;;
21843;SDS011;11084;52.482;9.108;2022-07-29T00:48:03;4.50;;;1.07;;
21843;SDS011;11084;52.482;9.108;2022-07-29T00:50:30;2.30;;;1.07;;
21843;SDS011;11084;52.482;9.108;2022-07-29T00:52:57;4.67;;;1.10;;
21843;SDS011;11084;52.482;9.108;2022-07-29T00:55:24;3.00;;;1.00;;
21843;SDS011;11084;52.482;9.108;2022-07-29T00:57:50;2.93;;;0.93;;
21843;SDS011;11084;52.482;9.108;2022-07-29T01:00:19;4.10;;;1.10;;
21843;SDS011;11084;52.482;9.108;2022-07-29T01:02:48;1.60;;;1.07;;
21843;SDS011;11084;52.482;9.108;2022-07-29T01:05:16;2.17;;;1.00;;
21843;SDS011;11084;52.482;9.108;2022-07-29T01:07:45;4.13;;;0.97;;
21843;SDS011;11084;52.482;9.108;2022-07-29T01:10:14;19.67;;;2.10;;
21843;SDS011;11084;52.482;9.108;2022-07-29T01:12:41;1.57;;;0.80;;
21843;SDS011;11084;52.482;9.108;2022-07-29T01:15:10;10.03;;;1.23;;
21843;SDS011;11084;52.482;9.108;2022-07-29T01:20:20;0.97;;;0.90;;
21843;SDS011;11084;52.482;9.108;2022-07-29T01:23:56;3.33;;;1.03;;
21843;SDS011;11084;52.482;9.108;2022-07-29T01:34:38;3.77;;;1.10;;
21843;SDS011;11084;52.482;9.108;2022-07-29T01:37:15;1.97;;;0.83;;
21843;SDS011;11084;52.482;9.108;2022-07-29T01:40:03;1.07;;;0.67;;
21843;SDS011;11084;52.482;9.108;2022-07-29T01:42:43;4.33;;;1.10;;
21843;SDS011;11084;52.482;9.108;2022-07-29T01:45:19;2.67;;;1.13;;
21843;SDS011;11084;52.482;9.108;2022-07-29T01:50:33;4.17;;;1.00;;
21843;SDS011;11084;52.482;9.108;2022-07-29T01:53:06;4.90;;;1.10;;
21843;SDS011;11084;52.482;9.108;2022-07-29T01:55:36;4.27;;;0.70;;
21843;SDS011;11084;52.482;9.108;2022-07-29T01:58:07;7.77;;;1.00;;
21843;SDS011;11084;52.482;9.108;2022-07-29T02:00:34;6.80;;;1.10;;
21843;SDS011;11084;52.482;9.108;2022-07-29T02:03:03;1.37;;;0.90;;
21843;SDS011;11084;52.482;9.108;2022-07-29T02:05:35;3.17;;;1.00;;
21843;SDS011;11084;52.482;9.108;2022-07-29T02:08:03;1.57;;;0.80;;
21843;SDS011;11084;52.482;9.108;2022-07-29T02:10:31;5.77;;;1.00;;
21843;SDS011;11084;52.482;9.108;2022-07-29T02:12:58;6.47;;;1.20;;
21843;SDS011;11084;52.482;9.108;2022-07-29T02:15:26;4.27;;;1.27;;
21843;SDS011;11084;52.482;9.108;2022-07-29T02:18:02;2.37;;;1.43;;
21843;SDS011;11084;52.482;9.108;2022-07-29T02:20:34;1.17;;;1.00;;
21843;SDS011;11084;52.482;9.108;2022-07-29T02:23:02;3.87;;;1.30;;
21843;SDS011;11084;52.482;9.108;2022-07-29T02:25:28;1.70;;;1.00;;
21843;SDS011;11084;52.482;9.108;2022-07-29T02:27:55;6.63;;;1.07;;
21843;SDS011;11084;52.482;9.108;2022-07-29T02:30:24;3.97;;;1.20;;
21843;SDS011;11084;52.482;9.108;2022-07-29T02:32:54;8.70;;;1.23;;
21843;SDS011;11084;52.482;9.108;2022-07-29T02:35:21;3.83;;;0.93;;
21843;SDS011;11084;52.482;9.108;2022-07-29T02:37:48;11.50;;;1.37;;
21843;SDS011;11084;52.482;9.108;2022-07-29T02:40:36;2.90;;;1.20;;
21843;SDS011;11084;52.482;9.108;2022-07-29T02:43:05;3.83;;;0.93;;
21843;SDS011;11084;52.482;9.108;2022-07-29T02:45:33;4.30;;;0.87;;
21843;SDS011;11084;52.482;9.108;2022-07-29T02:47:59;2.00;;;0.90;;
21843;SDS011;11084;52.482;9.108;2022-07-29T02:50:41;4.50;;;1.00;;
21843;SDS011;11084;52.482;9.108;2022-07-29T02:53:17;3.63;;;1.20;;
21843;SDS011;11084;52.482;9.108;2022-07-29T02:58:21;1.33;;;1.00;;
21843;SDS011;11084;52.482;9.108;2022-07-29T03:01:11;5.43;;;1.10;;
21843;SDS011;11084;52.482;9.108;2022-07-29T03:03:46;3.33;;;1.20;;
21843;SDS011;11084;52.482;9.108;2022-07-29T03:06:16;1.73;;;0.97;;
21843;SDS011;11084;52.482;9.108;2022-07-29T03:08:43;2.03;;;1.00;;
21843;SDS011;11084;52.482;9.108;2022-07-29T03:11:10;2.20;;;0.90;;
21843;SDS011;11084;52.482;9.108;2022-07-29T03:13:38;2.80;;;1.13;;
21843;SDS011;11084;52.482;9.108;2022-07-29T03:16:05;3.33;;;1.50;;
21843;SDS011;11084;52.482;9.108;2022-07-29T03:18:32;9.17;;;1.30;;
21843;SDS011;11084;52.482;9.108;2022-07-29T03:20:59;6.63;;;1.57;;
21843;SDS011;11084;52.482;9.108;2022-07-29T03:23:25;2.57;;;0.93;;
21843;SDS011;11084;52.482;9.108;2022-07-29T03:25:53;8.00;;;1.23;;
21843;SDS011;11084;52.482;9.108;2022-07-29T03:28:20;1.83;;;1.10;;
21843;SDS011;11084;52.482;9.108;2022-07-29T03:30:47;1.90;;;1.20;;
21843;SDS011;11084;52.482;9.108;2022-07-29T03:33:13;1.47;;;0.77;;
21843;SDS011;11084;52.482;9.108;2022-07-29T03:35:39;4.00;;;1.20;;
21843;SDS011;11084;52.482;9.108;2022-07-29T03:38:05;5.30;;;1.33;;
21843;SDS011;11084;52.482;9.108;2022-07-29T03:40:42;2.13;;;0.90;;
21843;SDS011;11084;52.482;9.108;2022-07-29T03:43:15;2.03;;;1.20;;
21843;SDS011;11084;52.482;9.108;2022-07-29T03:45:44;2.13;;;1.23;;
21843;SDS011;11084;52.482;9.108;2022-07-29T03:48:13;1.03;;;0.93;;
21843;SDS011;11084;52.482;9.108;2022-07-29T03:50:43;5.97;;;1.47;;
21843;SDS011;11084;52.482;9.108;2022-07-29T03:53:11;3.67;;;1.30;;
21843;SDS011;11084;52.482;9.108;2022-07-29T03:55:41;2.20;;;1.07;;
21843;SDS011;11084;52.482;9.108;2022-07-29T03:58:10;5.23;;;1.60;;
21843;SDS011;11084;52.482;9.108;2022-07-29T04:00:38;7.37;;;1.40;;
21843;SDS011;11084;52.482;9.108;2022-07-29T04:03:06;4.33;;;1.30;;
21843;SDS011;11084;52.482;9.108;2022-07-29T04:05:32;5.87;;;1.13;;
21843;SDS011;11084;52.482;9.108;2022-07-29T04:07:58;4.13;;;1.33;;
21843;SDS011;11084;52.482;9.108;2022-07-29T04:10:24;6.43;;;1.10;;
21843;SDS011;11084;52.482;9.108;2022-07-29T04:12:50;2.67;;;1.07;;
21843;SDS011;11084;52.482;9.108;2022-07-29T04:15:17;2.43;;;1.27;;
21843;SDS011;11084;52.482;9.108;2022-07-29T04:17:44;2.70;;;1.07;;
21843;SDS011;11084;52.482;9.108;2022-07-29T04:20:10;10.67;;;1.53;;
21843;SDS011;11084;52.482;9.108;2022-07-29T04:22:40;3.30;;;1.10;;
21843;SDS011;11084;52.482;9.108;2022-07-29T04:25:06;2.63;;;1.40;;
21843;SDS011;11084;52.482;9.108;2022-07-29T04:27:33;11.43;;;1.60;;
21843;SDS011;11084;52.482;9.108;2022-07-29T04:29:59;6.70;;;1.20;;
21843;SDS011;11084;52.482;9.108;2022-07-29T04:32:25;0.90;;;0.90;;
21843;SDS011;11084;52.482;9.108;2022-07-29T04:34:52;2.23;;;0.90;;
21843;SDS011;11084;52.482;9.108;2022-07-29T04:37:18;0.80;;;0.80;;
21843;SDS011;11084;52.482;9.108;2022-07-29T04:39:44;1.60;;;1.03;;
21843;SDS011;11084;52.482;9.108;2022-07-29T04:42:10;2.93;;;1.00;;
21843;SDS011;11084;52.482;9.108;2022-07-29T04:44:36;3.93;;;1.07;;
21843;SDS011;11084;52.482;9.108;2022-07-29T04:47:02;1.53;;;0.97;;
21843;SDS011;11084;52.482;9.108;2022-07-29T04:49:29;5.03;;;1.20;;
21843;SDS011;11084;52.482;9.108;2022-07-29T04:51:55;9.43;;;1.20;;
21843;SDS011;11084;52.482;9.108;2022-07-29T04:54:21;2.17;;;1.00;;
21843;SDS011;11084;52.482;9.108;2022-07-29T04:56:47;4.73;;;1.20;;
21843;SDS011;11084;52.482;9.108;2022-07-29T04:59:13;3.87;;;1.23;;
21843;SDS011;11084;52.482;9.108;2022-07-29T05:01:39;1.63;;;1.20;;
21843;SDS011;11084;52.482;9.108;2022-07-29T05:04:05;11.43;;;2.00;;
21843;SDS011;11084;52.482;9.108;2022-07-29T05:06:31;9.93;;;1.10;;
21843;SDS011;11084;52.482;9.108;2022-07-29T05:08:57;7.50;;;1.10;;
21843;SDS011;11084;52.482;9.108;2022-07-29T05:11:23;7.23;;;1.40;;
21843;SDS011;11084;52.482;9.108;2022-07-29T05:13:49;13.27;;;1.70;;
21843;SDS011;11084;52.482;9.108;2022-07-29T05:16:15;2.50;;;1.00;;
21843;SDS011;11084;52.482;9.108;2022-07-29T05:18:41;1.63;;;1.17;;
21843;SDS011;11084;52.482;9.108;2022-07-29T05:21:07;6.23;;;1.23;;
21843;SDS011;11084;52.482;9.108;2022-07-29T05:23:33;4.80;;;1.27;;
21843;SDS011;11084;52.482;9.108;2022-07-29T05:25:59;6.60;;;1.47;;
21843;SDS011;11084;52.482;9.108;2022-07-29T05:28:25;7.23;;;1.40;;
21843;SDS011;11084;52.482;9.108;2022-07-29T05:30:51;5.03;;;1.00;;
21843;SDS011;11084;52.482;9.108;2022-07-29T05:33:17;6.43;;;1.17;;
21843;SDS011;11084;52.482;9.108;2022-07-29T05:35:43;1.10;;;1.00;;
21843;SDS011;11084;52.482;9.108;2022-07-29T05:38:09;3.67;;;1.10;;
21843;SDS011;11084;52.482;9.108;2022-07-29T05:40:35;4.57;;;1.10;;
21843;SDS011;11084;52.482;9.108;2022-07-29T05:43:00;2.60;;;1.30;;
21843;SDS011;11084;52.482;9.108;2022-07-29T05:45:26;3.47;;;1.37;;
21843;SDS011;11084;52.482;9.108;2022-07-29T05:47:53;2.47;;;1.20;;
21843;SDS011;11084;52.482;9.108;2022-07-29T05:50:19;3.50;;;1.50;;
21843;SDS011;11084;52.482;9.108;2022-07-29T05:52:45;8.90;;;1.23;;
21843;SDS011;11084;52.482;9.108;2022-07-29T05:55:11;1.23;;;1.03;;
21843;SDS011;11084;52.482;9.108;2022-07-29T05:57:37;6.43;;;1.43;;
21843;SDS011;11084;52.482;9.108;2022-07-29T06:00:03;2.10;;;1.20;;
21843;SDS011;11084;52.482;9.108;2022-07-29T06:02:37;13.10;;;1.40;;
21843;SDS011;11084;52.482;9.108;2022-07-29T06:05:03;3.87;;;1.37;;
21843;SDS011;11084;52.482;9.108;2022-07-29T06:07:30;4.17;;;1.27;;
21843;SDS011;11084;52.482;9.108;2022-07-29T06:09:57;2.80;;;1.13;;
21843;SDS011;11084;52.482;9.108;2022-07-29T06:12:23;4.53;;;1.30;;
21843;SDS011;11084;52.482;9.108;2022-07-29T06:14:49;10.80;;;1.40;;
21843;SDS011;11084;52.482;9.108;2022-07-29T06:17:16;3.67;;;1.33;;
21843;SDS011;11084;52.482;9.108;2022-07-29T06:19:42;2.63;;;1.30;;
21843;SDS011;11084;52.482;9.108;2022-07-29T06:22:08;2.30;;;1.20;;
21843;SDS011;11084;52.482;9.108;2022-07-29T06:24:34;4.57;;;1.40;;
21843;SDS011;11084;52.482;9.108;2022-07-29T06:27:05;6.77;;;1.30;;
21843;SDS011;11084;52.482;9.108;2022-07-29T06:29:30;11.53;;;1.30;;
21843;SDS011;11084;52.482;9.108;2022-07-29T06:31:56;3.93;;;1.20;;
21843;SDS011;11084;52.482;9.108;2022-07-29T06:34:23;2.90;;;1.50;;
21843;SDS011;11084;52.482;9.108;2022-07-29T06:36:49;8.73;;;1.30;;
21843;SDS011;11084;52.482;9.108;2022-07-29T06:39:14;2.30;;;1.40;;
21843;SDS011;11084;52.482;9.108;2022-07-29T06:41:41;8.80;;;1.60;;
21843;SDS011;11084;52.482;9.108;2022-07-29T06:44:09;3.80;;;1.20;;
21843;SDS011;11084;52.482;9.108;2022-07-29T06:46:35;7.00;;;1.57;;
21843;SDS011;11084;52.482;9.108;2022-07-29T06:49:01;2.20;;;1.17;;
21843;SDS011;11084;52.482;9.108;2022-07-29T06:51:28;1.47;;;1.10;;
21843;SDS011;11084;52.482;9.108;2022-07-29T06:53:54;4.93;;;1.63;;
21843;SDS011;11084;52.482;9.108;2022-07-29T06:56:20;2.37;;;1.37;;
21843;SDS011;11084;52.482;9.108;2022-07-29T06:58:47;2.57;;;1.30;;
21843;SDS011;11084;52.482;9.108;2022-07-29T07:01:13;6.57;;;1.73;;
21843;SDS011;11084;52.482;9.108;2022-07-29T07:03:39;2.30;;;1.30;;
21843;SDS011;11084;52.482;9.108;2022-07-29T07:06:05;4.73;;;1.27;;
21843;SDS011;11084;52.482;9.108;2022-07-29T07:08:31;3.77;;;1.30;;
21843;SDS011;11084;52.482;9.108;2022-07-29T07:10:57;9.93;;;1.63;;
21843;SDS011;11084;52.482;9.108;2022-07-29T07:13:23;7.20;;;1.40;;
21843;SDS011;11084;52.482;9.108;2022-07-29T07:15:50;3.00;;;1.20;;
21843;SDS011;11084;52.482;9.108;2022-07-29T07:18:17;3.00;;;1.10;;
21843;SDS011;11084;52.482;9.108;2022-07-29T07:20:44;5.10;;;1.40;;
21843;SDS011;11084;52.482;9.108;2022-07-29T07:23:10;5.83;;;1.67;;
21843;SDS011;11084;52.482;9.108;2022-07-29T07:25:36;4.27;;;1.37;;
21843;SDS011;11084;52.482;9.108;2022-07-29T07:28:02;5.23;;;1.33;;
21843;SDS011;11084;52.482;9.108;2022-07-29T07:30:29;5.10;;;1.50;;
21843;SDS011;11084;52.482;9.108;2022-07-29T07:32:56;9.53;;;1.53;;
21843;SDS011;11084;52.482;9.108;2022-07-29T07:35:22;4.13;;;1.33;;
21843;SDS011;11084;52.482;9.108;2022-07-29T07:37:47;5.13;;;1.50;;
21843;SDS011;11084;52.482;9.108;2022-07-29T07:40:13;3.00;;;1.17;;
21843;SDS011;11084;52.482;9.108;2022-07-29T07:42:40;1.97;;;1.23;;
21843;SDS011;11084;52.482;9.108;2022-07-29T07:45:06;3.73;;;1.20;;
21843;SDS011;11084;52.482;9.108;2022-07-29T07:47:35;2.03;;;1.20;;
21843;SDS011;11084;52.482;9.108;2022-07-29T07:50:03;9.67;;;1.40;;
21843;SDS011;11084;52.482;9.108;2022-07-29T07:52:31;3.80;;;1.20;;
21843;SDS011;11084;52.482;9.108;2022-07-29T07:54:58;4.13;;;1.00;;
21843;SDS011;11084;52.482;9.108;2022-07-29T07:57:24;3.10;;;1.50;;
21843;SDS011;11084;52.482;9.108;2022-07-29T07:59:50;4.67;;;1.40;;
21843;SDS011;11084;52.482;9.108;2022-07-29T08:02:16;4.60;;;1.57;;
21843;SDS011;11084;52.482;9.108;2022-07-29T08:04:42;6.00;;;1.37;;
21843;SDS011;11084;52.482;9.108;2022-07-29T08:07:08;7.13;;;1.60;;
21843;SDS011;11084;52.482;9.108;2022-07-29T08:09:34;4.60;;;1.67;;
21843;SDS011;11084;52.482;9.108;2022-07-29T08:12:01;4.43;;;1.40;;
21843;SDS011;11084;52.482;9.108;2022-07-29T08:14:32;18.27;;;1.53;;
21843;SDS011;11084;52.482;9.108;2022-07-29T08:16:58;5.53;;;1.73;;
21843;SDS011;11084;52.482;9.108;2022-07-29T08:19:24;8.83;;;1.47;;
21843;SDS011;11084;52.482;9.108;2022-07-29T08:21:50;3.27;;;1.30;;
21843;SDS011;11084;52.482;9.108;2022-07-29T08:24:18;3.53;;;1.50;;
21843;SDS011;11084;52.482;9.108;2022-07-29T08:27:03;8.10;;;1.90;;
21843;SDS011;11084;52.482;9.108;2022-07-29T08:29:30;8.67;;;1.67;;
21843;SDS011;11084;52.482;9.108;2022-07-29T08:31:56;4.60;;;1.53;;
21843;SDS011;11084;52.482;9.108;2022-07-29T08:34:22;7.30;;;1.60;;
21843;SDS011;11084;52.482;9.108;2022-07-29T08:36:48;5.03;;;1.63;;
21843;SDS011;11084;52.482;9.108;2022-07-29T08:39:14;1.67;;;1.30;;
21843;SDS011;11084;52.482;9.108;2022-07-29T08:41:40;1.73;;;1.30;;
21843;SDS011;11084;52.482;9.108;2022-07-29T08:44:06;3.40;;;1.63;;
21843;SDS011;11084;52.482;9.108;2022-07-29T08:46:32;3.83;;;1.40;;
21843;SDS011;11084;52.482;9.108;2022-07-29T08:48:58;3.73;;;1.47;;
21843;SDS011;11084;52.482;9.108;2022-07-29T08:51:24;4.47;;;1.70;;
21843;SDS011;11084;52.482;9.108;2022-07-29T08:53:53;3.13;;;1.83;;
21843;SDS011;11084;52.482;9.108;2022-07-29T08:56:20;9.40;;;1.73;;
21843;SDS011;11084;52.482;9.108;2022-07-29T08:58:47;2.80;;;1.40;;
21843;SDS011;11084;52.482;9.108;2022-07-29T09:01:16;7.37;;;2.07;;
21843;SDS011;11084;52.482;9.108;2022-07-29T09:03:48;2.53;;;1.13;;
21843;SDS011;11084;52.482;9.108;2022-07-29T09:06:17;4.53;;;1.60;;
21843;SDS011;11084;52.482;9.108;2022-07-29T09:08:44;8.30;;;1.40;;
21843;SDS011;11084;52.482;9.108;2022-07-29T09:11:11;4.10;;;1.40;;
21843;SDS011;11084;52.482;9.108;2022-07-29T09:13:38;8.43;;;1.60;;
21843;SDS011;11084;52.482;9.108;2022-07-29T09:16:05;8.80;;;1.60;;
21843;SDS011;11084;52.482;9.108;2022-07-29T09:18:39;4.83;;;1.53;;
21843;SDS011;11084;52.482;9.108;2022-07-29T09:21:08;2.13;;;1.30;;
21843;SDS011;11084;52.482;9.108;2022-07-29T09:24:14;5.83;;;1.60;;
21843;SDS011;11084;52.482;9.108;2022-07-29T09:26:44;3.20;;;1.40;;
21843;SDS011;11084;52.482;9.108;2022-07-29T09:29:13;10.23;;;1.57;;
21843;SDS011;11084;52.482;9.108;2022-07-29T09:31:48;3.87;;;1.37;;
21843;SDS011;11084;52.482;9.108;2022-07-29T09:34:21;3.33;;;1.70;;
21843;SDS011;11084;52.482;9.108;2022-07-29T09:36:54;3.97;;;1.60;;
21843;SDS011;11084;52.482;9.108;2022-07-29T09:42:09;5.40;;;1.57;;
21843;SDS011;11084;52.482;9.108;2022-07-29T09:44:58;4.67;;;1.70;;
21843;SDS011;11084;52.482;9.108;2022-07-29T09:47:23;17.23;;;1.77;;
21843;SDS011;11084;52.482;9.108;2022-07-29T09:50:14;2.00;;;1.10;;
21843;SDS011;11084;52.482;9.108;2022-07-29T09:52:47;4.33;;;1.50;;
21843;SDS011;11084;52.482;9.108;2022-07-29T09:55:17;5.80;;;1.67;;
21843;SDS011;11084;52.482;9.108;2022-07-29T09:57:44;5.03;;;1.60;;
21843;SDS011;11084;52.482;9.108;2022-07-29T10:00:15;7.23;;;1.67;;
21843;SDS011;11084;52.482;9.108;2022-07-29T10:02:45;2.30;;;1.43;;
21843;SDS011;11084;52.482;9.108;2022-07-29T10:05:17;1.60;;;1.20;;
21843;SDS011;11084;52.482;9.108;2022-07-29T10:07:49;3.37;;;1.13;;
21843;SDS011;11084;52.482;9.108;2022-07-29T10:10:22;9.37;;;1.47;;
21843;SDS011;11084;52.482;9.108;2022-07-29T10:12:55;9.40;;;1.73;;
21843;SDS011;11084;52.482;9.108;2022-07-29T10:15:25;6.27;;;1.53;;
21843;SDS011;11084;52.482;9.108;2022-07-29T10:17:54;5.73;;;1.40;;
21843;SDS011;11084;52.482;9.108;2022-07-29T10:20:22;6.20;;;1.70;;
21843;SDS011;11084;52.482;9.108;2022-07-29T10:22:49;3.13;;;1.70;;
21843;SDS011;11084;52.482;9.108;2022-07-29T10:25:17;3.47;;;1.27;;
21843;SDS011;11084;52.482;9.108;2022-07-29T10:27:45;15.00;;;2.03;;
21843;SDS011;11084;52.482;9.108;2022-07-29T10:30:13;6.03;;;1.70;;
21843;SDS011;11084;52.482;9.108;2022-07-29T10:46:37;5.07;;;1.57;;
21843;SDS011;11084;52.482;9.108;2022-07-29T10:49:09;4.47;;;1.60;;
21843;SDS011;11084;52.482;9.108;2022-07-29T10:54:48;3.90;;;1.30;;
21843;SDS011;11084;52.482;9.108;2022-07-29T10:57:20;7.07;;;1.70;;
21843;SDS011;11084;52.482;9.108;2022-07-29T11:07:40;2.40;;;1.47;;
21843;SDS011;11084;52.482;9.108;2022-07-29T11:10:45;1.63;;;1.43;;
21843;SDS011;11084;52.482;9.108;2022-07-29T11:16:11;2.30;;;1.30;;
21843;SDS011;11084;52.482;9.108;2022-07-29T11:21:38;3.97;;;1.60;;
21843;SDS011;11084;52.482;9.108;2022-07-29T11:24:13;4.73;;;1.17;;
21843;SDS011;11084;52.482;9.108;2022-07-29T11:26:41;6.63;;;1.47;;
21843;SDS011;11084;52.482;9.108;2022-07-29T11:29:20;3.03;;;1.40;;
21843;SDS011;11084;52.482;9.108;2022-07-29T11:31:51;4.10;;;1.73;;
21843;SDS011;11084;52.482;9.108;2022-07-29T11:34:27;4.43;;;1.40;;
21843;SDS011;11084;52.482;9.108;2022-07-29T11:39:33;2.70;;;1.10;;
21843;SDS011;11084;52.482;9.108;2022-07-29T11:50:11;1.50;;;1.03;;
21843;SDS011;11084;52.482;9.108;2022-07-29T11:52:52;4.77;;;1.60;;
21843;SDS011;11084;52.482;9.108;2022-07-29T11:55:21;10.27;;;1.40;;
21843;SDS011;11084;52.482;9.108;2022-07-29T11:57:50;3.47;;;1.33;;
21843;SDS011;11084;52.482;9.108;2022-07-29T12:02:50;3.90;;;1.40;;
21843;SDS011;11084;52.482;9.108;2022-07-29T12:05:17;7.13;;;1.60;;
21843;SDS011;11084;52.482;9.108;2022-07-29T12:07:44;3.90;;;1.43;;
21843;SDS011;11084;52.482;9.108;2022-07-29T12:10:10;3.73;;;1.43;;
21843;SDS011;11084;52.482;9.108;2022-07-29T12:12:37;6.23;;;1.50;;
21843;SDS011;11084;52.482;9.108;2022-07-29T12:15:10;5.80;;;1.40;;
21843;SDS011;11084;52.482;9.108;2022-07-29T12:17:42;2.30;;;1.13;;
21843;SDS011;11084;52.482;9.108;2022-07-29T12:20:09;6.17;;;1.30;;
21843;SDS011;11084;52.482;9.108;2022-07-29T12:22:37;7.90;;;1.30;;
21843;SDS011;11084;52.482;9.108;2022-07-29T12:27:35;4.53;;;1.60;;
21843;SDS011;11084;52.482;9.108;2022-07-29T12:30:09;4.23;;;1.33;;
21843;SDS011;11084;52.482;9.108;2022-07-29T12:32:42;4.30;;;1.30;;
21843;SDS011;11084;52.482;9.108;2022-07-29T12:35:14;6.43;;;1.40;;
21843;SDS011;11084;52.482;9.108;2022-07-29T12:37:45;6.27;;;1.50;;
21843;SDS011;11084;52.482;9.108;2022-07-29T12:40:13;2.60;;;1.30;;
21843;SDS011;11084;52.482;9.108;2022-07-29T12:45:34;4.30;;;1.53;;
21843;SDS011;11084;52.482;9.108;2022-07-29T12:48:05;2.93;;;1.60;;
21843;SDS011;11084;52.482;9.108;2022-07-29T12:50:34;8.07;;;1.50;;
21843;SDS011;11084;52.482;9.108;2022-07-29T12:53:09;3.20;;;2.23;;
21843;SDS011;11084;52.482;9.108;2022-07-29T12:55:48;3.13;;;1.30;;
21843;SDS011;11084;52.482;9.108;2022-07-29T13:09:18;4.13;;;1.70;;
21843;SDS011;11084;52.482;9.108;2022-07-29T13:11:48;2.73;;;1.43;;
21843;SDS011;11084;52.482;9.108;2022-07-29T13:14:36;6.57;;;1.47;;
21843;SDS011;11084;52.482;9.108;2022-07-29T13:19:49;6.90;;;1.60;;
21843;SDS011;11084;52.482;9.108;2022-07-29T13:22:18;2.63;;;1.70;;
21843;SDS011;11084;52.482;9.108;2022-07-29T13:24:49;4.57;;;1.30;;
21843;SDS011;11084;52.482;9.108;2022-07-29T13:27:18;2.95;;;1.65;;
21843;SDS011;11084;52.482;9.108;2022-07-29T13:29:48;5.95;;;1.92;;
21843;SDS011;11084;52.482;9.108;2022-07-29T13:32:21;8.82;;;1.95;;
21843;SDS011;11084;52.482;9.108;2022-07-29T13:34:48;14.30;;;1.55;;
21843;SDS011;11084;52.482;9.108;2022-07-29T13:37:14;2.60;;;1.35;;
21843;SDS011;11084;52.482;9.108;2022-07-29T13:39:42;2.42;;;1.35;;
21843;SDS011;11084;52.482;9.108;2022-07-29T13:42:08;3.90;;;2.10;;
21843;SDS011;11084;52.482;9.108;2022-07-29T13:44:35;4.85;;;1.83;;
21843;SDS011;11084;52.482;9.108;2022-07-29T13:47:02;3.33;;;1.48;;
21843;SDS011;11084;52.482;9.108;2022-07-29T13:49:28;4.00;;;1.77;;
21843;SDS011;11084;52.482;9.108;2022-07-29T13:51:54;5.07;;;1.45;;
21843;SDS011;11084;52.482;9.108;2022-07-29T13:54:20;11.32;;;1.50;;
21843;SDS011;11084;52.482;9.108;2022-07-29T13:56:46;12.10;;;1.55;;
21843;SDS011;11084;52.482;9.108;2022-07-29T13:59:12;4.47;;;1.70;;
21843;SDS011;11084;52.482;9.108;2022-07-29T14:01:38;6.40;;;1.88;;
21843;SDS011;11084;52.482;9.108;2022-07-29T14:04:08;2.40;;;1.27;;
21843;SDS011;11084;52.482;9.108;2022-07-29T14:06:35;4.50;;;1.60;;
21843;SDS011;11084;52.482;9.108;2022-07-29T14:09:02;1.40;;;1.20;;
21843;SDS011;11084;52.482;9.108;2022-07-29T14:11:31;6.93;;;1.50;;
21843;SDS011;11084;52.482;9.108;2022-07-29T14:13:58;4.87;;;1.30;;
21843;SDS011;11084;52.482;9.108;2022-07-29T14:16:24;9.37;;;1.67;;
21843;SDS011;11084;52.482;9.108;2022-07-29T14:18:50;4.13;;;2.03;;
21843;SDS011;11084;52.482;9.108;2022-07-29T14:21:17;6.17;;;1.90;;
21843;SDS011;11084;52.482;9.108;2022-07-29T14:23:44;3.73;;;1.37;;
21843;SDS011;11084;52.482;9.108;2022-07-29T14:26:10;3.93;;;1.67;;
21843;SDS011;11084;52.482;9.108;2022-07-29T14:28:35;5.33;;;1.60;;
21843;SDS011;11084;52.482;9.108;2022-07-29T14:31:02;6.83;;;2.30;;
21843;SDS011;11084;52.482;9.108;2022-07-29T14:33:28;10.80;;;1.53;;
21843;SDS011;11084;52.482;9.108;2022-07-29T14:35:54;8.33;;;1.70;;
21843;SDS011;11084;52.482;9.108;2022-07-29T14:38:20;12.10;;;1.60;;
21843;SDS011;11084;52.482;9.108;2022-07-29T14:40:47;9.73;;;1.93;;
21843;SDS011;11084;52.482;9.108;2022-07-29T14:43:15;6.97;;;1.97;;
21843;SDS011;11084;52.482;9.108;2022-07-29T14:45:41;4.40;;;1.63;;
21843;SDS011;11084;52.482;9.108;2022-07-29T14:48:06;7.70;;;1.87;;
21843;SDS011;11084;52.482;9.108;2022-07-29T14:50:33;8.63;;;2.07;;
21843;SDS011;11084;52.482;9.108;2022-07-29T14:52:59;6.50;;;1.73;;
21843;SDS011;11084;52.482;9.108;2022-07-29T14:55:26;2.53;;;1.93;;
21843;SDS011;11084;52.482;9.108;2022-07-29T14:57:52;2.50;;;1.50;;
21843;SDS011;11084;52.482;9.108;2022-07-29T15:00:19;2.77;;;1.77;;
21843;SDS011;11084;52.482;9.108;2022-07-29T15:02:46;9.87;;;1.93;;
21843;SDS011;11084;52.482;9.108;2022-07-29T15:05:13;6.73;;;1.90;;
21843;SDS011;11084;52.482;9.108;2022-07-29T15:07:40;9.93;;;1.70;;
21843;SDS011;11084;52.482;9.108;2022-07-29T15:10:06;10.03;;;2.10;;
21843;SDS011;11084;52.482;9.108;2022-07-29T15:12:32;8.83;;;2.07;;
21843;SDS011;11084;52.482;9.108;2022-07-29T15:14:58;4.97;;;1.90;;
21843;SDS011;11084;52.482;9.108;2022-07-29T15:17:24;6.67;;;1.80;;
21843;SDS011;11084;52.482;9.108;2022-07-29T15:19:50;2.70;;;1.80;;
21843;SDS011;11084;52.482;9.108;2022-07-29T15:22:16;14.47;;;2.40;;
21843;SDS011;11084;52.482;9.108;2022-07-29T15:24:42;3.57;;;1.93;;
21843;SDS011;11084;52.482;9.108;2022-07-29T15:27:09;4.20;;;1.90;;
21843;SDS011;11084;52.482;9.108;2022-07-29T15:29:42;6.47;;;1.83;;
21843;SDS011;11084;52.482;9.108;2022-07-29T15:32:10;12.60;;;1.93;;
21843;SDS011;11084;52.482;9.108;2022-07-29T15:34:37;5.23;;;2.13;;
21843;SDS011;11084;52.482;9.108;2022-07-29T15:37:05;4.67;;;2.10;;
21843;SDS011;11084;52.482;9.108;2022-07-29T15:39:32;5.00;;;2.07;;
21843;SDS011;11084;52.482;9.108;2022-07-29T15:41:58;7.10;;;2.00;;
21843;SDS011;11084;52.482;9.108;2022-07-29T15:44:28;4.53;;;2.30;;
21843;SDS011;11084;52.482;9.108;2022-07-29T15:46:57;5.37;;;2.23;;
21843;SDS011;11084;52.482;9.108;2022-07-29T15:49:37;2.77;;;2.30;;
21843;SDS011;11084;52.482;9.108;2022-07-29T15:52:05;10.03;;;2.50;;
21843;SDS011;11084;52.482;9.108;2022-07-29T15:54:34;11.70;;;2.20;;
21843;SDS011;11084;52.482;9.108;2022-07-29T15:57:03;7.67;;;2.40;;
21843;SDS011;11084;52.482;9.108;2022-07-29T15:59:30;8.27;;;2.33;;
21843;SDS011;11084;52.482;9.108;2022-07-29T16:01:57;7.03;;;1.93;;
21843;SDS011;11084;52.482;9.108;2022-07-29T16:04:24;2.80;;;2.10;;
21843;SDS011;11084;52.482;9.108;2022-07-29T16:06:51;6.17;;;2.13;;
21843;SDS011;11084;52.482;9.108;2022-07-29T16:09:17;6.07;;;1.70;;
21843;SDS011;11084;52.482;9.108;2022-07-29T16:11:44;12.70;;;2.27;;
21843;SDS011;11084;52.482;9.108;2022-07-29T16:14:12;4.60;;;2.43;;
21843;SDS011;11084;52.482;9.108;2022-07-29T16:16:39;3.40;;;1.90;;